createdAt,value
2019-04-26T00:00:53.519Z,1.90
2019-04-26T00:01:53.539Z,2.00
2019-04-26T00:02:53.540Z,2.10
2019-04-26T00:03:53.557Z,2.30
2019-04-26T00:04:53.571Z,2.20
2019-04-26T00:05:53.600Z,2.20
2019-04-26T00:06:53.610Z,2.50
2019-04-26T00:07:53.611Z,2.20
2019-04-26T00:08:53.622Z,2.20
2019-04-26T00:09:53.642Z,2.40
2019-04-26T00:10:53.667Z,2.30
2019-04-26T00:11:53.695Z,2.20
2019-04-26T00:12:53.681Z,2.60
2019-04-26T00:13:53.706Z,2.70
2019-04-26T00:14:53.713Z,2.90
2019-04-26T00:15:53.723Z,2.50
2019-04-26T00:16:53.740Z,2.70
2019-04-26T00:17:53.764Z,3.10
2019-04-26T00:18:53.768Z,3.30
2019-04-26T00:19:53.778Z,3.60
2019-04-26T00:20:53.805Z,3.60
2019-04-26T00:21:53.823Z,3.50
2019-04-26T00:22:53.828Z,3.30
2019-04-26T00:23:53.838Z,3.50
2019-04-26T00:24:53.851Z,3.60
2019-04-26T00:25:53.862Z,3.80
2019-04-26T00:26:53.881Z,3.70
2019-04-26T00:27:53.895Z,4.00
2019-04-26T00:28:53.910Z,4.30
2019-04-26T00:29:53.931Z,4.10
2019-04-26T00:30:53.946Z,4.50
2019-04-26T00:31:53.963Z,4.50
2019-04-26T00:32:53.977Z,4.50
2019-04-26T00:33:53.988Z,4.40
2019-04-26T00:34:53.989Z,4.80
2019-04-26T00:35:54.003Z,4.60
2019-04-26T00:36:54.018Z,4.80
2019-04-26T00:37:54.043Z,5.00
2019-04-26T00:38:54.046Z,5.10
2019-04-26T00:39:54.076Z,5.10
2019-04-26T00:40:54.077Z,5.40
2019-04-26T00:41:54.095Z,5.20
2019-04-26T00:42:54.113Z,5.30
2019-04-26T00:43:54.120Z,6.00
2019-04-26T00:44:54.129Z,6.10
2019-04-26T00:45:54.146Z,6.50
2019-04-26T00:46:54.274Z,6.20
2019-04-26T00:47:54.188Z,7.00
2019-04-26T00:48:54.200Z,7.00
2019-04-26T00:49:54.218Z,7.10
2019-04-26T00:50:54.231Z,7.40
2019-04-26T00:51:54.242Z,7.40
2019-04-26T00:52:54.356Z,7.80
2019-04-26T00:53:54.275Z,7.90
2019-04-26T00:54:54.276Z,8.10
2019-04-26T00:55:54.299Z,7.50
2019-04-26T00:56:54.304Z,7.90
2019-04-26T00:57:54.330Z,8.50
2019-04-26T00:58:54.346Z,8.60
2019-04-26T00:59:54.365Z,9.10
2019-04-26T01:00:54.372Z,8.00
2019-04-26T01:01:54.389Z,8.10
2019-04-26T01:02:54.410Z,7.90
2019-04-26T01:03:54.417Z,8.80
2019-04-26T01:04:54.416Z,9.30
2019-04-26T01:06:00.272Z,9.20
2019-04-26T01:06:54.444Z,9.20
2019-04-26T01:07:54.471Z,9.10
2019-04-26T01:08:54.479Z,9.10
2019-04-26T01:09:54.494Z,8.50
2019-04-26T01:10:54.499Z,7.40
2019-04-26T01:11:54.512Z,7.00
2019-04-26T01:12:54.527Z,7.20
2019-04-26T01:13:54.535Z,6.70
2019-04-26T01:14:54.552Z,6.70
2019-04-26T01:15:54.571Z,6.10
2019-04-26T01:16:54.580Z,7.30
2019-04-26T01:17:54.593Z,6.30
2019-04-26T01:18:54.628Z,7.20
2019-04-26T01:19:54.640Z,7.10
2019-04-26T01:20:54.653Z,7.50
2019-04-26T01:21:54.664Z,7.50
2019-04-26T01:22:54.675Z,7.60
2019-04-26T01:23:54.674Z,7.20
2019-04-26T01:24:54.697Z,7.50
2019-04-26T01:25:54.719Z,7.40
2019-04-26T01:26:54.735Z,6.90
2019-04-26T01:27:54.732Z,6.90
2019-04-26T01:28:54.758Z,6.70
2019-04-26T01:29:54.774Z,7.00
2019-04-26T01:30:54.792Z,7.50
2019-04-26T01:31:54.789Z,6.20
2019-04-26T01:32:54.803Z,5.80
2019-04-26T01:33:54.821Z,6.10
2019-04-26T01:34:54.835Z,6.40
2019-04-26T01:35:54.845Z,6.20
2019-04-26T01:36:54.860Z,6.30
2019-04-26T01:37:54.882Z,6.40
2019-04-26T01:38:54.901Z,6.30
2019-04-26T01:39:54.907Z,6.50
2019-04-26T01:40:54.911Z,6.60
2019-04-26T01:41:54.944Z,6.80
2019-04-26T01:42:54.948Z,6.50
2019-04-26T01:43:54.954Z,6.30
2019-04-26T01:44:54.990Z,6.70
2019-04-26T01:45:54.983Z,7.00
2019-04-26T01:46:55.007Z,7.10
2019-04-26T01:47:55.009Z,7.90
2019-04-26T01:48:55.034Z,7.00
2019-04-26T01:49:55.055Z,7.00
2019-04-26T01:50:55.067Z,7.70
2019-04-26T01:51:55.076Z,7.70
2019-04-26T01:52:55.084Z,7.60
2019-04-26T01:53:55.106Z,7.60
2019-04-26T01:54:55.121Z,7.60
2019-04-26T01:55:55.124Z,7.10
2019-04-26T01:56:55.139Z,8.00
2019-04-26T01:57:55.163Z,7.70
2019-04-26T01:58:55.172Z,7.80
2019-04-26T01:59:55.194Z,7.70
2019-04-26T02:00:55.184Z,7.80
2019-04-26T02:01:55.206Z,7.80
2019-04-26T02:02:55.221Z,8.20
2019-04-26T02:03:55.233Z,8.50
2019-04-26T02:04:55.250Z,7.90
2019-04-26T02:05:55.257Z,8.20
2019-04-26T02:06:55.284Z,8.60
2019-04-26T02:07:55.296Z,8.70
2019-04-26T02:08:55.319Z,8.50
2019-04-26T02:09:55.312Z,8.50
2019-04-26T02:10:55.338Z,9.20
2019-04-26T02:11:55.338Z,8.10
2019-04-26T02:12:55.356Z,8.50
2019-04-26T02:13:55.374Z,8.90
2019-04-26T02:14:55.383Z,9.20
2019-04-26T02:15:55.403Z,9.30
2019-04-26T02:16:55.409Z,8.70
2019-04-26T02:17:55.423Z,8.80
2019-04-26T02:18:55.444Z,8.30
2019-04-26T02:19:55.465Z,8.50
2019-04-26T02:20:55.461Z,9.20
2019-04-26T02:21:55.491Z,8.70
2019-04-26T02:22:55.492Z,8.80
2019-04-26T02:23:55.515Z,9.40
2019-04-26T02:24:55.563Z,9.20
2019-04-26T02:25:55.545Z,9.00
2019-04-26T02:26:55.547Z,9.10
2019-04-26T02:27:55.560Z,9.10
2019-04-26T02:28:55.587Z,8.80
2019-04-26T02:29:55.588Z,9.20
2019-04-26T02:30:55.616Z,9.00
2019-04-26T02:31:55.614Z,8.90
2019-04-26T02:32:55.629Z,9.50
2019-04-26T02:33:55.639Z,9.20
2019-04-26T02:34:55.664Z,9.00
2019-04-26T02:35:55.682Z,9.60
2019-04-26T02:36:58.508Z,9.60
2019-04-26T02:37:55.712Z,9.00
2019-04-26T02:38:55.713Z,8.90
2019-04-26T02:39:55.721Z,9.20
2019-04-26T02:40:55.753Z,9.50
2019-04-26T02:41:55.764Z,9.60
2019-04-26T02:42:55.762Z,9.10
2019-04-26T02:43:55.777Z,10.10
2019-04-26T02:44:55.795Z,9.10
2019-04-26T02:45:55.807Z,9.80
2019-04-26T02:46:55.828Z,9.40
2019-04-26T02:47:55.836Z,9.30
2019-04-26T02:48:55.849Z,9.30
2019-04-26T02:49:55.863Z,9.00
2019-04-26T02:50:55.883Z,9.50
2019-04-26T02:51:55.903Z,9.60
2019-04-26T02:52:55.910Z,9.80
2019-04-26T02:53:55.913Z,9.40
2019-04-26T02:54:55.929Z,9.70
2019-04-26T02:55:55.944Z,9.00
2019-04-26T02:56:55.972Z,10.10
2019-04-26T02:57:55.971Z,9.50
2019-04-26T02:58:55.999Z,9.50
2019-04-26T02:59:56.049Z,9.50
2019-04-26T03:00:56.023Z,10.00
2019-04-26T03:01:56.027Z,9.70
2019-04-26T03:02:56.035Z,9.80
2019-04-26T03:03:56.074Z,9.20
2019-04-26T03:04:56.062Z,10.10
2019-04-26T03:05:56.100Z,9.50
2019-04-26T03:07:03.401Z,9.70
2019-04-26T03:07:56.117Z,8.70
2019-04-26T03:08:56.123Z,9.20
2019-04-26T03:09:56.131Z,9.30
2019-04-26T03:10:56.148Z,9.50
2019-04-26T03:11:56.185Z,9.60
2019-04-26T03:12:56.172Z,9.40
2019-04-26T03:13:56.182Z,10.50
2019-04-26T03:15:12.169Z,8.80
2019-04-26T03:15:56.225Z,9.90
2019-04-26T03:16:56.239Z,9.20
2019-04-26T03:17:56.245Z,9.20
2019-04-26T03:18:56.268Z,9.70
2019-04-26T03:19:56.261Z,9.90
2019-04-26T03:20:56.279Z,9.50
2019-04-26T03:21:56.301Z,9.30
2019-04-26T03:22:56.311Z,10.00
2019-04-26T03:23:58.489Z,10.20
2019-04-26T03:24:56.378Z,9.70
2019-04-26T03:25:56.374Z,9.60
2019-04-26T03:26:56.377Z,10.10
2019-04-26T03:27:56.385Z,10.00
2019-04-26T03:28:56.690Z,9.70
2019-04-26T03:30:17.478Z,10.20
2019-04-26T03:30:56.438Z,10.50
2019-04-26T03:31:56.483Z,9.50
2019-04-26T03:32:56.456Z,9.20
2019-04-26T03:33:56.537Z,9.60
2019-04-26T03:34:56.515Z,9.90
2019-04-26T03:35:58.239Z,9.60
2019-04-26T03:36:56.512Z,10.10
2019-04-26T03:37:56.517Z,9.80
2019-04-26T03:38:56.528Z,9.70
2019-04-26T03:39:56.537Z,9.50
2019-04-26T03:40:56.553Z,9.60
2019-04-26T03:41:56.569Z,10.10
2019-04-26T03:42:56.652Z,9.70
2019-04-26T03:43:56.607Z,9.40
2019-04-26T03:44:56.618Z,9.40
2019-04-26T03:45:56.626Z,9.50
2019-04-26T03:46:56.647Z,10.00
2019-04-26T03:47:56.660Z,9.10
2019-04-26T03:48:56.661Z,9.10
2019-04-26T03:49:56.681Z,9.50
2019-04-26T03:50:56.683Z,10.00
2019-04-26T03:51:56.705Z,9.40
2019-04-26T03:52:56.718Z,9.00
2019-04-26T03:53:56.730Z,9.90
2019-04-26T03:54:56.747Z,9.10
2019-04-26T03:55:56.747Z,9.80
2019-04-26T03:56:56.782Z,9.90
2019-04-26T03:57:56.799Z,9.20
2019-04-26T03:58:56.799Z,9.60
2019-04-26T03:59:56.823Z,9.30
2019-04-26T04:00:56.823Z,9.90
2019-04-26T04:01:56.846Z,9.20
2019-04-26T04:02:56.853Z,9.50
2019-04-26T04:03:56.877Z,9.20
2019-04-26T04:04:56.876Z,9.40
2019-04-26T04:05:56.886Z,9.90
2019-04-26T04:07:04.291Z,9.20
2019-04-26T04:07:56.916Z,8.90
2019-04-26T04:08:56.944Z,9.20
2019-04-26T04:09:56.947Z,9.20
2019-04-26T04:10:56.990Z,9.90
2019-04-26T04:12:10.765Z,9.20
2019-04-26T04:12:56.983Z,9.00
2019-04-26T04:13:57.044Z,8.70
2019-04-26T04:14:57.002Z,9.30
2019-04-26T04:15:57.013Z,8.40
2019-04-26T04:16:57.026Z,8.90
2019-04-26T04:17:57.052Z,8.50
2019-04-26T04:18:57.063Z,8.50
2019-04-26T04:19:57.133Z,8.40
2019-04-26T04:20:57.081Z,8.00
2019-04-26T04:21:57.091Z,8.40
2019-04-26T04:22:57.116Z,8.20
2019-04-26T04:23:57.121Z,7.60
2019-04-26T04:24:57.143Z,7.80
2019-04-26T04:25:57.160Z,7.40
2019-04-26T04:26:57.174Z,7.80
2019-04-26T04:27:57.167Z,7.70
2019-04-26T04:28:57.184Z,8.10
2019-04-26T04:29:57.217Z,7.70
2019-04-26T04:30:57.231Z,7.70
2019-04-26T04:31:57.237Z,7.80
2019-04-26T04:32:57.318Z,7.30
2019-04-26T04:33:57.260Z,8.20
2019-04-26T04:34:57.262Z,7.40
2019-04-26T04:35:57.277Z,8.10
2019-04-26T04:36:57.305Z,7.80
2019-04-26T04:38:08.641Z,7.30
2019-04-26T04:39:11.179Z,8.00
2019-04-26T04:39:57.345Z,7.80
2019-04-26T04:40:57.343Z,7.40
2019-04-26T04:41:57.361Z,7.60
2019-04-26T04:42:57.407Z,7.80
2019-04-26T04:43:57.398Z,7.80
2019-04-26T04:44:57.420Z,7.90
2019-04-26T04:45:57.446Z,7.80
2019-04-26T04:46:57.433Z,8.20
2019-04-26T04:47:57.440Z,7.70
2019-04-26T04:48:57.481Z,7.70
2019-04-26T04:49:57.477Z,7.40
2019-04-26T04:50:57.499Z,8.00
2019-04-26T04:51:57.496Z,8.10
2019-04-26T04:52:57.519Z,7.80
2019-04-26T04:53:57.534Z,8.50
2019-04-26T04:55:07.194Z,7.90
2019-04-26T04:55:57.620Z,8.30
2019-04-26T04:56:57.594Z,7.40
2019-04-26T04:57:57.586Z,8.00
2019-04-26T04:58:57.619Z,8.00
2019-04-26T04:59:57.629Z,8.40
2019-04-26T05:00:57.611Z,8.20
2019-04-26T05:01:57.663Z,8.30
2019-04-26T05:02:57.653Z,8.00
2019-04-26T05:03:57.660Z,8.40
2019-04-26T05:04:57.678Z,8.60
2019-04-26T05:06:07.375Z,8.50
2019-04-26T05:06:57.688Z,8.50
2019-04-26T05:08:06.573Z,8.60
2019-04-26T05:08:57.739Z,8.40
2019-04-26T05:09:57.727Z,8.40
2019-04-26T05:10:57.750Z,8.70
2019-04-26T05:11:57.755Z,9.00
2019-04-26T05:12:57.776Z,8.40
2019-04-26T05:13:57.796Z,7.80
2019-04-26T05:14:57.811Z,8.80
2019-04-26T05:15:57.827Z,8.20
2019-04-26T05:16:57.828Z,8.40
2019-04-26T05:17:57.833Z,8.20
2019-04-26T05:18:57.858Z,8.30
2019-04-26T05:19:57.868Z,8.00
2019-04-26T05:20:57.885Z,8.00
2019-04-26T05:21:57.888Z,7.70
2019-04-26T05:22:57.902Z,8.60
2019-04-26T05:23:57.930Z,7.80
2019-04-26T05:24:57.938Z,7.60
2019-04-26T05:25:57.951Z,7.70
2019-04-26T05:26:58.074Z,7.00
2019-04-26T05:27:57.969Z,7.70
2019-04-26T05:28:57.975Z,7.40
2019-04-26T05:29:57.990Z,8.00
2019-04-26T05:30:58.014Z,7.30
2019-04-26T05:31:58.033Z,7.60
2019-04-26T05:32:58.044Z,8.10
2019-04-26T05:33:58.048Z,8.20
2019-04-26T05:34:58.178Z,8.00
2019-04-26T05:35:58.154Z,8.10
2019-04-26T05:37:58.215Z,7.80
2019-04-26T05:38:58.116Z,7.80
2019-04-26T05:39:58.161Z,8.60
2019-04-26T05:42:58.204Z,8.30
2019-04-26T05:43:58.735Z,8.80
2019-04-26T05:45:58.947Z,7.70
2019-04-26T05:46:58.539Z,8.50
2019-04-26T05:48:09.305Z,8.70
2019-04-26T05:48:58.910Z,8.50
2019-04-26T05:53:58.339Z,8.40
2019-04-26T05:55:59.207Z,8.50
2019-04-26T05:57:59.951Z,9.10
2019-04-26T05:59:01.437Z,8.50
2019-04-26T06:00:01.038Z,8.60
2019-04-26T06:00:58.420Z,8.60
2019-04-26T06:04:59.261Z,8.20
2019-04-26T06:09:58.688Z,9.00
2019-04-26T06:10:58.662Z,8.00
2019-04-26T06:11:58.797Z,8.30
2019-04-26T06:14:59.506Z,8.40
2019-04-26T06:15:58.717Z,7.70
2019-04-26T06:16:59.239Z,7.70
2019-04-26T06:20:00.028Z,7.20
2019-04-26T06:21:05.715Z,7.50
2019-04-26T06:22:00.018Z,7.40
2019-04-26T06:23:00.746Z,8.00
2019-04-26T06:24:02.118Z,7.80
2019-04-26T06:29:01.051Z,7.20
2019-04-26T06:29:58.958Z,7.00
2019-04-26T06:30:59.474Z,7.40
2019-04-26T06:31:58.861Z,7.70
2019-04-26T06:33:58.864Z,6.90
2019-04-26T06:34:59.315Z,7.00
2019-04-26T06:35:59.302Z,7.30
2019-04-26T06:36:59.745Z,7.10
2019-04-26T06:37:59.776Z,7.10
2019-04-26T06:38:59.882Z,7.50
2019-04-26T06:40:58.948Z,7.50
2019-04-26T06:41:59.207Z,7.30
2019-04-26T06:42:59.147Z,7.40
2019-04-26T06:43:59.075Z,7.30
2019-04-26T06:45:00.409Z,8.10
2019-04-26T06:45:59.110Z,7.70
2019-04-26T06:46:59.820Z,7.70
2019-04-26T06:47:59.034Z,7.90
2019-04-26T06:48:59.061Z,7.90
2019-04-26T06:50:59.805Z,8.30
2019-04-26T06:51:59.106Z,8.90
2019-04-26T06:52:59.111Z,8.50
2019-04-26T06:53:59.149Z,8.60
2019-04-26T06:54:59.765Z,7.00
2019-04-26T06:56:00.818Z,7.70
2019-04-26T06:57:07.896Z,8.80
2019-04-26T06:58:00.793Z,9.10
2019-04-26T06:58:59.293Z,8.80
2019-04-26T07:00:00.279Z,8.50
2019-04-26T07:00:59.213Z,8.40
2019-04-26T07:01:59.299Z,8.50
2019-04-26T07:03:01.054Z,8.80
2019-04-26T07:03:59.671Z,9.60
2019-04-26T07:05:00.666Z,8.00
2019-04-26T07:06:00.355Z,8.90
2019-04-26T07:06:59.897Z,8.30
2019-04-26T07:07:59.296Z,8.30
2019-04-26T07:09:00.581Z,8.50
2019-04-26T07:10:00.227Z,8.40
2019-04-26T07:11:00.574Z,8.40
2019-04-26T07:14:00.570Z,9.50
2019-04-26T07:15:00.582Z,8.70
2019-04-26T07:16:00.291Z,9.20
2019-04-26T07:17:00.647Z,8.40
2019-04-26T07:17:59.444Z,8.60
2019-04-26T07:19:01.175Z,8.20
2019-04-26T07:20:00.864Z,8.20
2019-04-26T07:21:00.503Z,8.30
2019-04-26T07:22:00.648Z,7.60
2019-04-26T07:24:01.203Z,8.30
2019-04-26T07:25:00.148Z,7.90
2019-04-26T07:26:00.316Z,7.70
2019-04-26T07:27:01.268Z,8.30
2019-04-26T07:28:06.114Z,7.90
2019-04-26T07:29:00.094Z,7.30
2019-04-26T07:30:01.636Z,7.70
2019-04-26T07:30:59.707Z,7.20
2019-04-26T07:31:59.621Z,7.30
2019-04-26T07:32:59.831Z,6.80
2019-04-26T07:33:59.665Z,6.40
2019-04-26T07:35:00.214Z,7.60
2019-04-26T07:35:59.691Z,7.50
2019-04-26T07:37:00.213Z,8.00
2019-04-26T07:38:01.192Z,7.70
2019-04-26T07:39:10.744Z,8.40
2019-04-26T07:40:01.376Z,6.90
2019-04-26T07:41:01.471Z,7.70
2019-04-26T07:42:01.567Z,7.00
2019-04-26T07:43:01.728Z,7.20
2019-04-26T07:43:59.784Z,7.30
2019-04-26T07:44:59.802Z,7.40
2019-04-26T07:45:59.823Z,7.00
2019-04-26T07:46:59.826Z,8.00
2019-04-26T07:47:59.843Z,7.60
2019-04-26T07:48:59.859Z,8.20
2019-04-26T07:49:59.856Z,8.30
2019-04-26T07:50:59.870Z,9.20
2019-04-26T07:51:59.897Z,8.00
2019-04-26T07:53:00.538Z,8.10
2019-04-26T07:53:59.907Z,7.70
2019-04-26T07:54:59.922Z,8.20
2019-04-26T07:56:00.080Z,7.80
2019-04-26T07:56:59.964Z,7.50
2019-04-26T07:57:59.970Z,8.00
2019-04-26T07:59:02.735Z,8.40
2019-04-26T08:00:00.013Z,8.60
2019-04-26T08:01:00.013Z,9.10
2019-04-26T08:02:00.029Z,8.80
2019-04-26T08:03:00.029Z,8.60
2019-04-26T08:04:00.048Z,9.00
2019-04-26T08:05:00.070Z,9.50
2019-04-26T08:06:00.084Z,9.80
2019-04-26T08:07:00.101Z,8.90
2019-04-26T08:08:00.119Z,9.30
2019-04-26T08:09:00.135Z,9.80
2019-04-26T08:10:00.228Z,9.70
2019-04-26T08:11:00.141Z,9.50
2019-04-26T08:12:00.171Z,8.70
2019-04-26T08:13:00.163Z,8.80
2019-04-26T08:14:00.225Z,9.30
2019-04-26T08:15:00.192Z,9.50
2019-04-26T08:16:00.209Z,8.80
2019-04-26T08:17:00.220Z,9.20
2019-04-26T08:18:00.564Z,10.10
2019-04-26T08:19:00.261Z,9.60
2019-04-26T08:20:00.278Z,9.10
2019-04-26T08:21:02.407Z,9.20
2019-04-26T08:22:14.847Z,9.10
2019-04-26T08:23:02.647Z,9.20
2019-04-26T08:24:00.516Z,9.20
2019-04-26T08:25:00.346Z,8.90
2019-04-26T08:27:08.738Z,9.20
2019-04-26T08:28:00.385Z,10.10
2019-04-26T08:29:01.580Z,9.60
2019-04-26T08:30:03.327Z,10.40
2019-04-26T08:31:00.420Z,10.80
2019-04-26T08:32:00.437Z,10.30
2019-04-26T08:33:02.052Z,9.70
2019-04-26T08:34:00.456Z,10.60
2019-04-26T08:35:02.266Z,11.20
2019-04-26T08:36:00.481Z,11.60
2019-04-26T08:37:01.797Z,11.40
2019-04-26T08:38:00.511Z,9.00
2019-04-26T08:39:00.563Z,9.30
2019-04-26T08:40:00.542Z,10.10
2019-04-26T08:41:04.834Z,10.10
2019-04-26T08:42:00.580Z,9.50
2019-04-26T08:43:00.596Z,9.00
2019-04-26T08:44:03.717Z,8.60
2019-04-26T08:45:00.636Z,9.00
2019-04-26T08:46:03.216Z,8.70
2019-04-26T08:47:01.007Z,9.10
2019-04-26T08:48:00.743Z,8.70
2019-04-26T08:49:02.163Z,9.20
2019-04-26T08:50:00.685Z,9.00
2019-04-26T08:51:00.718Z,9.00
2019-04-26T08:52:00.712Z,8.50
2019-04-26T08:53:00.735Z,8.10
2019-04-26T08:54:00.750Z,8.10
2019-04-26T08:55:00.755Z,9.30
2019-04-26T08:56:00.804Z,9.40
2019-04-26T08:57:00.779Z,9.10
2019-04-26T08:58:00.790Z,8.80
2019-04-26T08:59:01.198Z,7.80
2019-04-26T09:00:00.950Z,7.90
2019-04-26T09:01:00.848Z,8.00
2019-04-26T09:02:00.842Z,7.50
2019-04-26T09:03:10.973Z,7.90
2019-04-26T09:04:00.881Z,7.90
2019-04-26T09:05:00.871Z,7.50
2019-04-26T09:06:00.900Z,7.90
2019-04-26T09:07:00.918Z,8.20
2019-04-26T09:08:00.976Z,7.20
2019-04-26T09:09:00.979Z,7.00
2019-04-26T09:10:05.442Z,6.90
2019-04-26T09:11:00.975Z,7.80
2019-04-26T09:12:03.806Z,8.30
2019-04-26T09:13:00.990Z,7.90
2019-04-26T09:14:01.013Z,7.40
2019-04-26T09:15:01.025Z,8.60
2019-04-26T09:16:01.097Z,8.10
2019-04-26T09:17:01.042Z,8.00
2019-04-26T09:18:02.186Z,7.40
2019-04-26T09:19:01.090Z,6.30
2019-04-26T09:20:07.049Z,6.50
2019-04-26T09:21:01.109Z,7.60
2019-04-26T09:22:12.445Z,7.60
2019-04-26T09:23:03.965Z,6.60
2019-04-26T09:24:01.163Z,6.80
2019-04-26T09:25:01.280Z,7.50
2019-04-26T09:26:01.370Z,6.50
2019-04-26T09:27:01.253Z,6.90
2019-04-26T09:28:01.222Z,7.00
2019-04-26T09:29:01.619Z,7.20
2019-04-26T09:30:05.040Z,7.10
2019-04-26T09:32:01.261Z,7.50
2019-04-26T09:33:01.949Z,7.70
2019-04-26T09:34:01.289Z,7.20
2019-04-26T09:35:01.297Z,7.00
2019-04-26T09:36:01.364Z,7.60
2019-04-26T09:37:01.327Z,7.70
2019-04-26T09:38:01.380Z,7.70
2019-04-26T09:39:03.913Z,7.60
2019-04-26T09:40:10.074Z,8.00
2019-04-26T09:41:01.416Z,7.60
2019-04-26T09:42:05.983Z,8.20
2019-04-26T09:43:02.772Z,7.90
2019-04-26T09:44:02.020Z,7.80
2019-04-26T09:45:01.555Z,8.10
2019-04-26T09:46:01.633Z,8.40
2019-04-26T09:47:01.456Z,8.00
2019-04-26T09:48:01.481Z,8.00
2019-04-26T09:49:03.071Z,8.60
2019-04-26T09:50:01.538Z,8.10
2019-04-26T09:51:01.557Z,8.00
2019-04-26T09:52:01.556Z,7.80
2019-04-26T09:53:01.672Z,8.20
2019-04-26T09:54:01.652Z,8.50
2019-04-26T09:55:01.919Z,8.60
2019-04-26T09:56:01.650Z,8.80
2019-04-26T09:57:01.603Z,9.40
2019-04-26T09:58:01.892Z,8.70
2019-04-26T09:59:05.551Z,9.30
2019-04-26T10:00:01.666Z,10.50
2019-04-26T10:01:01.756Z,9.00
2019-04-26T10:02:01.695Z,9.30
2019-04-26T10:03:01.696Z,9.40
2019-04-26T10:04:01.705Z,9.30
2019-04-26T10:05:08.067Z,9.20
2019-04-26T10:06:02.146Z,9.50
2019-04-26T10:07:03.294Z,8.90
2019-04-26T10:08:01.777Z,8.70
2019-04-26T10:09:01.817Z,8.60
2019-04-26T10:10:01.810Z,9.40
2019-04-26T10:11:01.925Z,9.10
2019-04-26T10:12:01.834Z,9.40
2019-04-26T10:13:01.882Z,9.30
2019-04-26T10:14:01.852Z,9.50
2019-04-26T10:15:01.935Z,9.40
2019-04-26T10:17:02.698Z,8.50
2019-04-26T10:18:03.049Z,9.40
2019-04-26T10:21:02.170Z,9.90
2019-04-26T10:22:03.830Z,8.80
2019-04-26T10:23:02.034Z,9.50
2019-04-26T10:25:06.868Z,8.10
2019-04-26T10:26:03.317Z,8.00
2019-04-26T10:29:03.056Z,8.80
2019-04-26T10:30:09.018Z,9.20
2019-04-26T10:31:03.517Z,9.00
2019-04-26T10:32:06.625Z,9.10
2019-04-26T10:33:03.469Z,9.40
2019-04-26T10:35:04.821Z,9.30
2019-04-26T10:36:02.153Z,8.90
2019-04-26T10:37:06.131Z,9.00
2019-04-26T10:38:02.190Z,8.90
2019-04-26T10:39:02.203Z,8.80
2019-04-26T10:40:02.213Z,9.40
2019-04-26T10:41:02.237Z,8.70
2019-04-26T10:42:02.230Z,9.60
2019-04-26T10:43:02.259Z,11.50
2019-04-26T10:44:02.381Z,8.90
2019-04-26T10:45:02.274Z,8.90
2019-04-26T10:46:02.288Z,9.00
2019-04-26T10:47:04.484Z,8.30
2019-04-26T10:48:02.449Z,8.80
2019-04-26T10:49:08.537Z,9.40
2019-04-26T10:50:02.358Z,8.80
2019-04-26T10:51:03.308Z,8.20
2019-04-26T10:52:02.374Z,8.90
2019-04-26T10:53:02.406Z,8.50
2019-04-26T10:54:05.987Z,8.50
2019-04-26T10:55:02.471Z,8.90
2019-04-26T10:56:02.437Z,9.20
2019-04-26T10:57:02.460Z,9.30
2019-04-26T10:58:02.474Z,9.90
2019-04-26T10:59:02.474Z,9.70
2019-04-26T11:00:02.491Z,9.50
2019-04-26T11:01:02.536Z,10.00
2019-04-26T11:02:02.555Z,9.80
2019-04-26T11:03:04.465Z,9.80
2019-04-26T11:04:02.566Z,9.60
2019-04-26T11:05:02.579Z,9.80
2019-04-26T11:06:02.610Z,10.20
2019-04-26T11:07:03.455Z,9.70
2019-04-26T11:08:02.624Z,10.00
2019-04-26T11:09:02.654Z,10.40
2019-04-26T11:10:03.015Z,9.80
2019-04-26T11:11:02.654Z,9.70
2019-04-26T11:12:02.658Z,9.70
2019-04-26T11:13:02.697Z,9.60
2019-04-26T11:14:02.739Z,9.20
2019-04-26T11:15:02.717Z,8.90
2019-04-26T11:16:07.134Z,9.40
2019-04-26T11:17:02.730Z,9.00
2019-04-26T11:18:02.767Z,8.80
2019-04-26T11:19:02.776Z,9.60
2019-04-26T11:20:06.202Z,9.40
2019-04-26T11:21:02.826Z,8.90
2019-04-26T11:22:02.818Z,9.10
2019-04-26T11:23:02.828Z,9.20
2019-04-26T11:24:02.982Z,8.90
2019-04-26T11:25:02.888Z,8.60
2019-04-26T11:26:03.185Z,8.80
2019-04-26T11:27:05.292Z,8.70
2019-04-26T11:28:02.893Z,8.60
2019-04-26T11:29:02.946Z,8.30
2019-04-26T11:30:11.558Z,8.40
2019-04-26T11:31:02.958Z,8.00
2019-04-26T11:32:04.225Z,7.90
2019-04-26T11:34:05.478Z,7.40
2019-04-26T11:35:03.070Z,8.10
2019-04-26T11:36:03.398Z,7.80
2019-04-26T11:37:03.029Z,7.00
2019-04-26T11:38:03.069Z,7.80
2019-04-26T11:39:05.426Z,8.20
2019-04-26T11:40:03.068Z,7.60
2019-04-26T11:41:06.213Z,7.80
2019-04-26T11:42:03.104Z,8.00
2019-04-26T11:43:03.118Z,7.30
2019-04-26T11:44:03.266Z,8.00
2019-04-26T11:45:06.265Z,7.80
2019-04-26T11:46:04.591Z,7.50
2019-04-26T11:47:07.514Z,7.80
2019-04-26T11:48:03.461Z,7.90
2019-04-26T11:49:07.002Z,7.50
2019-04-26T11:50:03.675Z,8.40
2019-04-26T11:53:06.280Z,8.20
2019-04-26T11:54:03.348Z,8.30
2019-04-26T11:55:03.346Z,7.50
2019-04-26T11:56:04.545Z,7.50
2019-04-26T11:57:03.311Z,7.20
2019-04-26T11:58:03.334Z,8.00
2019-04-26T11:59:03.365Z,8.00
2019-04-26T12:00:05.488Z,7.70
2019-04-26T12:01:03.373Z,8.50
2019-04-26T12:02:03.944Z,8.00
2019-04-26T12:03:03.443Z,8.20
2019-04-26T12:05:03.450Z,7.20
2019-04-26T12:06:03.438Z,7.40
2019-04-26T12:07:03.458Z,8.20
2019-04-26T12:08:03.468Z,8.20
2019-04-26T12:09:03.485Z,7.70
2019-04-26T12:10:05.883Z,7.50
2019-04-26T12:11:03.556Z,7.10
2019-04-26T12:12:04.712Z,7.00
2019-04-26T12:13:05.790Z,7.60
2019-04-26T12:14:04.100Z,7.60
2019-04-26T12:15:08.103Z,7.10
2019-04-26T12:16:03.601Z,7.50
2019-04-26T12:17:03.620Z,7.60
2019-04-26T12:18:05.569Z,7.40
2019-04-26T12:19:03.651Z,7.40
2019-04-26T12:20:03.658Z,7.30
2019-04-26T12:21:03.661Z,7.60
2019-04-26T12:22:04.199Z,7.30
2019-04-26T12:23:03.693Z,7.40
2019-04-26T12:24:03.702Z,7.40
2019-04-26T12:25:07.266Z,7.40
2019-04-26T12:26:03.745Z,7.20
2019-04-26T12:27:03.793Z,7.60
2019-04-26T12:28:06.107Z,7.80
2019-04-26T12:29:03.789Z,7.30
2019-04-26T12:30:03.799Z,7.60
2019-04-26T12:31:03.826Z,7.80
2019-04-26T12:32:03.819Z,7.40
2019-04-26T12:33:03.834Z,7.30
2019-04-26T12:34:04.393Z,7.60
2019-04-26T12:35:03.877Z,7.70
2019-04-26T12:36:03.892Z,7.10
2019-04-26T12:37:03.911Z,7.60
2019-04-26T12:38:03.927Z,7.50
2019-04-26T12:39:03.932Z,7.70
2019-04-26T12:40:07.152Z,7.70
2019-04-26T12:41:03.969Z,8.00
2019-04-26T12:42:03.972Z,7.20
2019-04-26T12:43:04.001Z,6.10
2019-04-26T12:44:04.014Z,6.80
2019-04-26T12:45:04.028Z,6.70
2019-04-26T12:46:04.043Z,7.10
2019-04-26T12:47:05.230Z,6.90
2019-04-26T12:48:04.093Z,7.40
2019-04-26T12:49:04.077Z,7.30
2019-04-26T12:50:04.102Z,6.60
2019-04-26T12:51:04.361Z,6.70
2019-04-26T12:52:04.121Z,7.10
2019-04-26T12:53:04.148Z,6.70
2019-04-26T12:54:08.345Z,6.80
2019-04-26T12:55:04.162Z,6.30
2019-04-26T12:56:04.227Z,6.40
2019-04-26T12:58:04.255Z,6.50
2019-04-26T12:59:04.237Z,7.00
2019-04-26T13:00:04.254Z,6.70
2019-04-26T13:01:07.996Z,6.70
2019-04-26T13:02:05.829Z,6.10
2019-04-26T13:03:04.291Z,6.50
2019-04-26T13:04:04.297Z,6.80
2019-04-26T13:05:04.310Z,6.90
2019-04-26T13:06:04.481Z,6.00
2019-04-26T13:08:04.637Z,6.70
2019-04-26T13:09:05.509Z,6.80
2019-04-26T13:12:04.492Z,6.60
2019-04-26T13:13:04.426Z,6.60
2019-04-26T13:14:04.648Z,6.30
2019-04-26T13:15:04.613Z,6.60
2019-04-26T13:16:04.487Z,6.10
2019-04-26T13:18:07.215Z,6.40
2019-04-26T13:19:04.770Z,6.90
2019-04-26T13:20:04.761Z,6.60
2019-04-26T13:21:04.609Z,6.70
2019-04-26T13:22:04.614Z,6.70
2019-04-26T13:23:05.067Z,7.10
2019-04-26T13:24:06.147Z,6.80
2019-04-26T13:25:04.600Z,6.70
2019-04-26T13:26:04.652Z,6.50
2019-04-26T13:27:06.121Z,6.70
2019-04-26T13:28:04.653Z,6.60
2019-04-26T13:29:04.686Z,6.80
2019-04-26T13:30:06.817Z,6.50
2019-04-26T13:31:05.362Z,6.70
2019-04-26T13:32:04.810Z,7.00
2019-04-26T13:33:04.919Z,6.80
2019-04-26T13:34:04.765Z,6.50
2019-04-26T13:36:05.536Z,6.40
2019-04-26T13:37:05.002Z,6.40
2019-04-26T13:38:05.040Z,7.00
2019-04-26T13:39:05.272Z,6.70
2019-04-26T13:40:05.506Z,7.10
2019-04-26T13:41:06.285Z,7.20
2019-04-26T13:42:09.357Z,7.60
2019-04-26T13:43:06.619Z,8.00
2019-04-26T13:44:05.901Z,7.50
2019-04-26T13:46:04.939Z,7.70
2019-04-26T13:47:07.941Z,7.20
2019-04-26T13:48:04.960Z,7.30
2019-04-26T13:49:04.952Z,7.40
2019-04-26T13:50:04.981Z,7.10
2019-04-26T13:51:05.828Z,7.60
2019-04-26T13:52:05.011Z,7.90
2019-04-26T13:53:05.013Z,7.80
2019-04-26T13:54:05.033Z,8.00
2019-04-26T13:55:05.042Z,7.70
2019-04-26T13:56:05.058Z,7.70
2019-04-26T13:57:06.226Z,8.50
2019-04-26T13:58:05.084Z,8.30
2019-04-26T13:59:05.106Z,8.00
2019-04-26T14:00:07.668Z,8.20
2019-04-26T14:01:05.138Z,8.50
2019-04-26T14:02:11.328Z,7.90
2019-04-26T14:03:05.163Z,8.80
2019-04-26T14:04:07.006Z,7.80
2019-04-26T14:05:05.191Z,8.40
2019-04-26T14:06:05.219Z,8.90
2019-04-26T14:07:05.231Z,8.60
2019-04-26T14:08:05.241Z,8.60
2019-04-26T14:09:05.256Z,8.90